Time;durP1;ratioP1;P1;durP2;ratioP2;P2;SDS_P1;SDS_P2;PMS_P1;PMS_P2;Temp;Humidity;BMP_temperature;BMP_pressure;BME280_temperature;BME280_humidity;BME280_pressure;Samples;Min_cycle;Max_cycle;Signal;HPM_P1;HPM_P2
2022/03/20 00:02:32;;;;;;;9.37;8.47;;;;;;;22.52;25.80;97063.25;6181678;28;103388;-42
2022/03/20 00:05:40;;;;;;;7.80;7.00;;;;;;;22.51;25.45;97072.31;6169150;28;103068;-42
2022/03/20 00:08:42;;;;;;;8.90;8.10;;;;;;;22.48;25.38;97065.59;6178183;28;104069;-42
2022/03/20 00:11:44;;;;;;;8.03;7.33;;;;;;;22.50;25.65;97070.66;6183085;28;102811;-42
2022/03/20 00:14:46;;;;;;;7.80;7.10;;;;;;;22.50;26.00;97068.81;6180425;28;103365;-42
2022/03/20 00:17:49;;;;;;;8.87;7.50;;;;;;;22.49;25.62;97067.19;6177286;28;102771;-42
2022/03/20 00:20:57;;;;;;;8.10;7.30;;;;;;;22.48;25.70;97070.91;6181673;28;102863;-42
2022/03/20 00:24:00;;;;;;;8.43;7.20;;;;;;;22.48;25.64;97070.13;6191536;28;103261;-42
2022/03/20 00:27:02;;;;;;;7.90;7.10;;;;;;;22.49;25.55;97074.38;6207551;28;102854;-42
2022/03/20 00:30:04;;;;;;;8.20;7.50;;;;;;;22.47;25.48;97064.00;6201430;28;102888;-42
2022/03/20 00:33:06;;;;;;;7.50;6.80;;;;;;;22.46;25.46;97061.56;6184077;28;103209;-42
2022/03/20 00:36:07;;;;;;;6.70;6.20;;;;;;;22.46;25.63;97069.56;6181266;28;102735;-42
2022/03/20 00:39:09;;;;;;;7.93;7.23;;;;;;;22.45;25.55;97060.78;6181256;28;102819;-42
2022/03/20 00:42:11;;;;;;;7.60;6.90;;;;;;;22.42;25.39;97061.28;6178709;28;103395;-42
2022/03/20 00:45:12;;;;;;;7.47;6.77;;;;;;;22.43;25.47;97062.88;6178441;28;102846;-42
2022/03/20 00:48:14;;;;;;;7.00;6.40;;;;;;;22.42;25.07;97057.81;6165414;28;103988;-42
2022/03/20 00:51:16;;;;;;;6.90;6.30;;;;;;;22.41;25.16;97065.00;6167321;28;103139;-42
2022/03/20 00:54:18;;;;;;;6.93;6.33;;;;;;;22.43;25.26;97062.09;6185895;28;102793;-42
2022/03/20 00:57:20;;;;;;;7.63;6.93;;;;;;;22.38;25.12;97051.38;6184991;28;102732;-43
2022/03/20 01:00:21;;;;;;;6.77;6.17;;;;;;;22.42;24.95;97060.47;6184183;28;102824;-43
2022/03/20 01:03:23;;;;;;;6.93;6.33;;;;;;;22.43;25.40;97060.22;6155926;28;103417;-42
2022/03/20 01:06:25;;;;;;;6.20;5.70;;;;;;;22.31;25.28;97037.44;6171412;28;102767;-43
2022/03/20 01:09:28;;;;;;;6.47;5.97;;;;;;;22.46;25.42;97061.56;6186874;28;103438;-42
2022/03/20 01:12:32;;;;;;;6.10;5.60;;;;;;;22.46;25.51;97054.38;6179461;28;102750;-43
2022/03/20 01:15:34;;;;;;;5.90;5.40;;;;;;;22.45;25.48;97055.44;6175783;28;103110;-42
2022/03/20 01:18:36;;;;;;;5.43;4.93;;;;;;;22.45;25.28;97052.78;6186363;28;102740;-43
2022/03/20 01:21:38;;;;;;;5.07;4.67;;;;;;;22.45;25.73;97050.13;6186373;28;103145;-43
2022/03/20 01:24:40;;;;;;;5.03;4.63;;;;;;;22.47;25.91;97048.00;6193979;28;103046;-43
2022/03/20 01:27:42;;;;;;;5.23;4.80;;;;;;;22.45;25.86;97046.66;6185521;28;102817;-43
2022/03/20 01:30:47;;;;;;;5.00;4.60;;;;;;;22.44;26.29;97048.50;6165693;28;102888;-42
2022/03/20 01:33:49;;;;;;;5.33;4.93;;;;;;;22.40;26.35;97042.09;6185245;28;102830;-42
2022/03/20 01:36:51;;;;;;;5.50;5.03;;;;;;;22.43;25.97;97043.44;6178894;28;104061;-42
2022/03/20 01:39:53;;;;;;;4.97;4.57;;;;;;;22.43;26.19;97046.09;6186258;28;103437;-42
2022/03/20 01:42:55;;;;;;;5.17;4.77;;;;;;;22.36;26.52;97035.66;6184716;28;103233;-43
2022/03/20 01:45:57;;;;;;;4.93;4.50;;;;;;;22.38;26.65;97036.22;6176771;28;102803;-43
2022/03/20 01:48:58;;;;;;;5.20;4.80;;;;;;;22.39;26.57;97050.34;6185214;28;103096;-43
2022/03/20 01:52:23;;;;;;;4.83;4.30;;;;;;;22.33;26.70;97043.34;6185441;28;103126;-43
2022/03/20 01:55:25;;;;;;;5.03;4.60;;;;;;;22.38;26.50;97056.72;6184379;28;103127;-43
2022/03/20 01:58:27;;;;;;;7.50;4.90;;;;;;;22.38;26.62;97054.84;6160474;28;103967;-43
2022/03/20 02:01:32;;;;;;;5.40;5.00;;;;;;;22.37;26.80;97058.56;6185097;28;103013;-42
2022/03/20 02:04:36;;;;;;;5.47;5.07;;;;;;;22.36;26.98;97056.97;6185264;28;103405;-42
2022/03/20 02:07:40;;;;;;;5.20;4.70;;;;;;;22.34;27.03;97059.09;6178043;28;102775;-42
2022/03/20 02:10:43;;;;;;;6.73;5.20;;;;;;;22.36;27.37;97056.97;6184550;28;102877;-42
2022/03/20 02:13:45;;;;;;;5.83;5.00;;;;;;;22.36;26.88;97051.66;6184458;28;102702;-42
2022/03/20 02:16:47;;;;;;;5.13;4.73;;;;;;;22.34;27.08;97050.25;6182150;28;102743;-42
2022/03/20 02:19:49;;;;;;;5.03;4.63;;;;;;;22.27;26.96;97044.34;6179492;28;102739;-42
2022/03/20 02:22:51;;;;;;;5.00;4.50;;;;;;;22.35;26.98;97051.91;6184864;28;103044;-42
2022/03/20 02:25:53;;;;;;;5.97;5.30;;;;;;;22.32;26.57;97055.84;6193478;28;102901;-42
2022/03/20 02:28:54;;;;;;;4.93;4.37;;;;;;;22.30;26.37;97041.97;6183931;28;102729;-42
2022/03/20 02:31:58;;;;;;;5.83;5.30;;;;;;;22.34;26.60;97047.59;6179424;28;103443;-43
2022/03/20 02:35:05;;;;;;;4.67;4.27;;;;;;;22.34;26.26;97039.63;6183536;28;103078;-44
2022/03/20 02:38:10;;;;;;;4.53;4.23;;;;;;;22.34;26.11;97043.09;6184552;28;103208;-43
2022/03/20 02:41:14;;;;;;;6.33;5.17;;;;;;;22.34;26.30;97045.78;6178455;28;102746;-43
2022/03/20 02:44:16;;;;;;;5.60;5.10;;;;;;;22.34;26.13;97043.09;6183342;28;102773;-43
2022/03/20 02:47:25;;;;;;;7.67;4.57;;;;;;;22.33;25.84;97043.34;6182258;28;102753;-43
2022/03/20 02:50:29;;;;;;;4.80;4.40;;;;;;;22.30;25.92;97036.66;6183867;28;102744;-42
2022/03/20 02:53:34;;;;;;;5.00;4.60;;;;;;;22.32;25.55;97042.53;6179072;28;103274;-42
2022/03/20 02:56:36;;;;;;;4.93;4.53;;;;;;;22.33;25.65;97038.81;6183648;28;103214;-43
2022/03/20 02:59:38;;;;;;;4.63;4.23;;;;;;;22.32;25.86;97039.06;6183681;28;103333;-43
2022/03/20 03:02:45;;;;;;;4.90;4.50;;;;;;;22.34;25.63;97042.28;6178249;28;102916;-43
2022/03/20 03:05:47;;;;;;;4.30;3.90;;;;;;;22.37;25.47;97036.47;6182624;28;103407;-43
2022/03/20 03:12:09;;;;;;;5.03;4.30;;;;;;;22.36;25.28;97040.19;6182314;28;103234;-43
2022/03/20 03:15:20;;;;;;;4.80;3.77;;;;;;;22.37;25.52;97041.78;6177735;28;102781;-43
2022/03/20 03:18:23;;;;;;;4.17;3.87;;;;;;;22.33;25.44;97041.47;6158110;28;102802;-42
2022/03/20 03:21:25;;;;;;;4.30;3.90;;;;;;;22.34;25.30;97043.09;6158651;28;102913;-42
2022/03/20 03:24:26;;;;;;;4.30;3.90;;;;;;;22.33;25.51;97041.47;6168365;28;103271;-42
2022/03/20 03:27:28;;;;;;;4.00;3.70;;;;;;;22.29;25.49;97042.22;6179488;28;103228;-42
2022/03/20 03:30:30;;;;;;;3.67;3.37;;;;;;;22.33;25.28;97046.78;6183780;28;103073;-42
2022/03/20 03:33:32;;;;;;;3.80;3.50;;;;;;;22.32;25.50;97045.19;6183958;28;103627;-43
2022/03/20 03:36:34;;;;;;;3.70;3.40;;;;;;;22.31;25.18;97043.59;6176458;28;103868;-43
2022/03/20 03:39:36;;;;;;;3.80;3.50;;;;;;;22.30;24.87;97049.97;6183656;28;103207;-42
2022/03/20 03:42:37;;;;;;;3.87;3.57;;;;;;;22.26;25.34;97048.06;6181260;28;102826;-43
2022/03/20 03:45:39;;;;;;;3.83;3.53;;;;;;;22.28;25.31;97046.75;6181841;28;102849;-43
2022/03/20 03:48:41;;;;;;;4.10;3.70;;;;;;;22.26;25.08;97035.56;6177206;28;103265;-42
2022/03/20 03:51:43;;;;;;;3.97;3.50;;;;;;;22.28;25.12;97048.63;6182688;28;102888;-43
2022/03/20 03:54:45;;;;;;;3.90;3.60;;;;;;;22.26;25.00;97051.53;6182095;28;104740;-43
2022/03/20 03:57:48;;;;;;;4.23;3.90;;;;;;;22.24;24.92;97045.66;6152713;28;102756;-42
2022/03/20 04:00:50;;;;;;;3.67;3.37;;;;;;;22.26;24.96;97061.38;6158132;28;102801;-43
2022/03/20 04:03:52;;;;;;;4.13;3.83;;;;;;;22.26;24.88;97056.84;6159638;28;103290;-42
2022/03/20 04:06:54;;;;;;;4.00;3.70;;;;;;;22.22;25.00;97039.78;6181450;28;103142;-43
2022/03/20 04:09:56;;;;;;;3.87;3.57;;;;;;;22.28;24.86;97060.06;6177871;28;103213;-42
2022/03/20 04:12:58;;;;;;;4.23;3.93;;;;;;;22.27;24.73;97047.81;6162836;28;102818;-43
2022/03/20 04:16:00;;;;;;;4.40;4.00;;;;;;;22.29;24.67;97040.38;6182785;28;103055;-43
2022/03/20 04:19:02;;;;;;;3.57;3.33;;;;;;;22.27;24.70;97047.00;6180643;28;103580;-43
2022/03/20 04:22:04;;;;;;;3.67;3.40;;;;;;;22.30;24.79;97057.97;6176499;28;105020;-42
2022/03/20 04:25:08;;;;;;;4.30;4.00;;;;;;;22.25;24.82;97041.94;6200460;28;102972;-42
2022/03/20 04:28:09;;;;;;;5.63;4.50;;;;;;;22.30;24.80;97051.81;6206296;28;103068;-42
2022/03/20 04:31:15;;;;;;;4.07;3.77;;;;;;;22.32;24.76;97061.16;6178823;28;103273;-43
2022/03/20 04:34:17;;;;;;;5.10;4.00;;;;;;;22.34;25.03;97058.25;6181654;28;103488;-44
2022/03/20 04:37:21;;;;;;;4.93;4.53;;;;;;;22.16;24.91;97067.38;6182884;28;103654;-45
2022/03/20 04:40:23;;;;;;;6.07;5.47;;;;;;;22.01;25.18;97064.56;6182974;28;102867;-44
2022/03/20 04:43:25;;;;;;;23.67;8.23;;;;;;;21.10;23.22;97069.41;6173571;28;103962;-45
2022/03/20 04:46:27;;;;;;;12.53;7.63;;;;;;;20.50;23.61;97059.41;6181414;28;103203;-46
2022/03/20 04:59:30;;;;;;;7.87;6.50;;;;;;;21.85;23.67;97071.53;6182097;28;103006;-46
2022/03/20 05:02:34;;;;;;;6.77;6.00;;;;;;;21.86;23.76;97067.84;6181237;28;102838;-46
2022/03/20 05:05:36;;;;;;;6.80;5.50;;;;;;;21.81;23.61;97059.75;6175176;28;103639;-46
2022/03/20 05:08:39;;;;;;;6.77;6.13;;;;;;;21.92;23.75;97077.47;6182145;28;102812;-46
2022/03/20 05:15:03;;;;;;;5.40;4.87;;;;;;;21.89;23.51;97073.47;6172445;28;104437;-45
2022/03/20 05:18:07;;;;;;;6.33;5.73;;;;;;;21.97;23.54;97076.72;6181354;28;103173;-45
2022/03/20 05:21:10;;;;;;;5.30;4.80;;;;;;;22.03;23.42;97070.44;6180926;28;102743;-46
2022/03/20 05:24:13;;;;;;;5.87;5.23;;;;;;;22.13;23.17;97078.53;6173608;28;103122;-46
2022/03/20 05:27:15;;;;;;;7.63;5.30;;;;;;;22.32;23.97;97082.47;6175826;28;103303;-46
2022/03/20 05:30:16;;;;;;;5.33;4.70;;;;;;;22.37;23.94;97073.75;6179263;28;103674;-46
2022/03/20 05:33:18;;;;;;;5.00;4.60;;;;;;;22.51;24.53;97081.09;6183786;28;103260;-46
2022/03/20 05:36:29;;;;;;;6.20;4.80;;;;;;;22.54;24.44;97095.78;6185221;28;102909;-45
2022/03/20 05:39:33;;;;;;;5.60;5.20;;;;;;;22.58;24.65;97090.75;6179919;28;102893;-45
2022/03/20 05:42:36;;;;;;;6.87;4.50;;;;;;;22.58;24.69;97088.06;6165539;28;102957;-45
2022/03/20 05:45:44;;;;;;;4.93;4.53;;;;;;;22.60;24.27;97084.09;6185488;28;103114;-45
2022/03/20 05:48:46;;;;;;;5.20;4.70;;;;;;;22.73;24.84;97102.34;6179712;28;103251;-46
2022/03/20 05:51:49;;;;;;;4.90;4.50;;;;;;;22.76;24.87;97107.16;6185569;28;103336;-45
2022/03/20 05:54:51;;;;;;;5.70;4.23;;;;;;;22.82;25.11;97100.03;6184674;28;102799;-45
2022/03/20 05:58:02;;;;;;;6.47;4.90;;;;;;;22.83;24.84;97100.84;6185264;28;103132;-46
2022/03/20 06:01:03;;;;;;;5.00;4.20;;;;;;;23.00;24.77;97105.00;6177989;28;102748;-46
2022/03/20 06:04:06;;;;;;;7.53;4.33;;;;;;;23.00;25.22;97099.66;6183807;28;102823;-46
2022/03/20 06:07:08;;;;;;;5.17;4.37;;;;;;;23.14;25.03;97100.03;6185062;28;102698;-46
2022/03/20 06:10:12;;;;;;;5.83;5.33;;;;;;;23.18;25.06;97105.66;6178390;28;103217;-45
2022/03/20 06:13:13;;;;;;;15.87;6.63;;;;;;;23.16;24.74;97103.25;6185423;28;103290;-47
2022/03/20 06:16:16;;;;;;;6.63;5.10;;;;;;;23.21;24.88;97103.31;6183677;28;102858;-45
2022/03/20 06:19:18;;;;;;;6.30;5.70;;;;;;;23.27;24.54;97104.94;6184441;28;102761;-46
2022/03/20 06:22:20;;;;;;;8.00;6.60;;;;;;;23.33;24.10;97108.44;6178584;28;102973;-45
2022/03/20 06:25:21;;;;;;;6.77;6.20;;;;;;;23.39;24.20;97108.22;6187644;28;103218;-46
2022/03/20 06:28:23;;;;;;;7.80;6.73;;;;;;;23.49;24.38;97109.34;6184986;28;102702;-45
2022/03/20 06:31:25;;;;;;;7.80;7.10;;;;;;;23.53;24.15;97108.59;6184108;28;102959;-46
2022/03/20 06:34:33;;;;;;;7.37;6.70;;;;;;;23.60;24.46;97114.53;6179315;28;102759;-43
2022/03/20 06:37:36;;;;;;;9.40;7.23;;;;;;;23.67;24.77;97109.75;6183963;28;103381;-44
2022/03/20 06:40:38;;;;;;;7.20;6.60;;;;;;;23.70;24.60;97111.13;6182828;28;102767;-44
2022/03/20 06:43:40;;;;;;;6.70;6.20;;;;;;;23.67;24.51;97109.75;6178919;28;102792;-44
2022/03/20 06:46:43;;;;;;;7.50;6.77;;;;;;;23.67;25.24;97120.41;6180762;28;103114;-44
2022/03/20 06:49:45;;;;;;;6.73;5.90;;;;;;;23.73;25.13;97117.81;6182746;28;103238;-44
2022/03/20 06:52:47;;;;;;;6.83;6.23;;;;;;;23.74;25.43;97114.88;6183923;28;102832;-44
2022/03/20 06:55:49;;;;;;;7.03;6.43;;;;;;;23.76;26.05;97123.41;6178012;28;102751;-44
2022/03/20 06:58:51;;;;;;;6.97;6.47;;;;;;;23.80;26.87;97127.19;6183140;28;103150;-44
2022/03/20 07:01:53;;;;;;;7.63;6.93;;;;;;;23.81;27.51;97119.97;6176974;28;102825;-43
2022/03/20 07:04:55;;;;;;;8.27;7.60;;;;;;;23.83;27.58;97115.16;6175748;28;103122;-44
2022/03/20 07:07:56;;;;;;;9.30;8.50;;;;;;;23.81;28.04;97114.63;6183416;28;102817;-44
2022/03/20 07:10:58;;;;;;;9.60;8.80;;;;;;;23.84;29.06;97114.91;6163724;28;103513;-45
2022/03/20 07:14:01;;;;;;;11.83;10.07;;;;;;;23.86;30.52;97128.03;6182436;28;103253;-45
2022/03/20 07:17:14;;;;;;;9.53;8.67;;;;;;;23.83;31.89;97131.19;6177701;28;102771;-44
2022/03/20 07:20:16;;;;;;;12.10;8.87;;;;;;;23.86;31.57;97128.03;6183666;28;103365;-43
2022/03/20 07:23:18;;;;;;;10.47;9.57;;;;;;;23.85;30.56;97118.38;6185718;28;102804;-46
2022/03/20 07:29:40;;;;;;;10.27;9.10;;;;;;;23.97;30.06;97119.78;6176561;28;103044;-45
2022/03/20 07:32:42;;;;;;;9.17;8.27;;;;;;;24.00;30.01;97121.13;6180742;28;103579;-44
2022/03/20 07:35:44;;;;;;;10.63;8.60;;;;;;;24.02;29.98;97111.00;6183288;28;103005;-46
2022/03/20 07:38:46;;;;;;;9.03;7.80;;;;;;;24.03;29.65;97117.97;6177835;28;103254;-46
2022/03/20 07:41:47;;;;;;;8.00;7.40;;;;;;;24.05;29.43;97115.81;6165732;28;102841;-45
2022/03/20 07:44:49;;;;;;;6.90;6.30;;;;;;;24.13;29.44;97123.31;6183520;28;103110;-45
2022/03/20 07:47:51;;;;;;;7.40;6.80;;;;;;;24.16;29.52;97113.97;6183301;28;102991;-45
2022/03/20 07:50:53;;;;;;;7.57;6.90;;;;;;;24.16;29.97;97114.78;6177479;28;103494;-45
2022/03/20 07:53:55;;;;;;;7.53;6.93;;;;;;;24.14;29.43;97100.88;6182503;28;103313;-45
2022/03/20 07:56:56;;;;;;;6.80;6.17;;;;;;;24.17;29.00;97110.25;6182871;28;102718;-45
2022/03/20 07:59:58;;;;;;;6.13;5.67;;;;;;;24.17;28.57;97100.38;6177887;28;103067;-45
2022/03/20 08:03:00;;;;;;;6.20;5.70;;;;;;;24.14;28.56;97100.09;6181162;28;102791;-45
2022/03/20 08:06:02;;;;;;;5.80;5.30;;;;;;;24.18;28.50;97103.84;6183242;28;103077;-45
2022/03/20 08:09:04;;;;;;;5.90;5.30;;;;;;;24.17;28.00;97095.03;6164933;28;103491;-45
2022/03/20 08:12:07;;;;;;;5.30;4.90;;;;;;;24.16;28.44;97090.75;6177078;28;102843;-45
2022/03/20 08:15:29;;;;;;;5.63;5.13;;;;;;;24.19;28.36;97087.56;6183007;28;102757;-45
2022/03/20 08:18:31;;;;;;;5.70;5.20;;;;;;;24.19;27.62;97084.91;6182437;28;102762;-45
2022/03/20 08:21:33;;;;;;;5.60;5.10;;;;;;;24.14;28.06;97071.50;6183048;28;103775;-45
2022/03/20 08:24:36;;;;;;;5.90;5.47;;;;;;;24.18;27.45;97074.44;6189119;28;102894;-45
2022/03/20 08:27:53;;;;;;;5.90;5.40;;;;;;;24.18;27.77;97061.91;6207638;28;103099;-46
2022/03/20 08:30:55;;;;;;;6.37;5.03;;;;;;;24.21;27.52;97065.94;6206781;28;103144;-46
2022/03/20 08:33:57;;;;;;;6.37;5.83;;;;;;;24.23;27.50;97064.59;6201833;28;102868;-45
2022/03/20 08:36:59;;;;;;;6.80;6.20;;;;;;;24.17;27.76;97048.81;6207002;28;102792;-46
2022/03/20 08:40:02;;;;;;;8.53;6.20;;;;;;;24.17;27.60;97054.97;6207024;28;102763;-45
2022/03/20 08:43:04;;;;;;;11.60;10.50;;;;;;;24.16;27.40;97050.69;6186700;28;102845;-46
2022/03/20 08:46:06;;;;;;;15.40;12.20;;;;;;;24.15;26.91;97046.41;6157437;28;102953;-45
2022/03/20 08:49:09;;;;;;;15.10;13.60;;;;;;;24.14;26.77;97044.81;6181335;28;102719;-45
2022/03/20 08:52:11;;;;;;;15.43;13.83;;;;;;;24.17;27.12;97052.28;6182938;28;103482;-46
2022/03/20 08:55:13;;;;;;;19.67;15.63;;;;;;;24.08;26.92;97040.53;6157160;28;102748;-46
2022/03/20 08:58:15;;;;;;;17.13;15.43;;;;;;;24.10;26.97;97042.94;6181544;28;102954;-45
2022/03/20 09:01:17;;;;;;;21.27;15.03;;;;;;;23.98;27.54;97046.63;6182209;28;102854;-46
2022/03/20 09:04:19;;;;;;;14.60;12.23;;;;;;;23.82;24.24;97038.81;6181671;28;102976;-46
2022/03/20 09:07:21;;;;;;;13.00;10.70;;;;;;;23.70;23.27;97031.06;6178872;28;102850;-46
2022/03/20 09:10:24;;;;;;;10.20;9.20;;;;;;;23.73;22.36;97029.72;6163816;28;103596;-45
2022/03/20 09:13:27;;;;;;;9.70;8.77;;;;;;;23.75;21.15;97028.41;6184340;28;102814;-47
2022/03/20 09:19:54;;;;;;;10.07;7.57;;;;;;;23.80;20.30;97027.59;6187907;28;102848;-45
2022/03/20 09:22:56;;;;;;;7.13;6.43;;;;;;;23.73;19.62;97021.72;6182043;28;102841;-46
2022/03/20 09:25:57;;;;;;;7.20;6.60;;;;;;;23.83;18.93;97011.06;6182595;28;103180;-45
2022/03/20 09:28:59;;;;;;;6.73;6.03;;;;;;;23.88;18.93;97016.44;6172785;28;103176;-45
2022/03/20 09:32:01;;;;;;;7.00;6.30;;;;;;;23.91;18.87;97008.69;6180756;28;103034;-45
2022/03/20 09:35:03;;;;;;;7.83;7.07;;;;;;;23.90;18.99;96999.09;6181859;28;103464;-45
2022/03/20 09:38:09;;;;;;;7.13;6.43;;;;;;;23.94;19.17;97002.03;6182427;28;103614;-45
2022/03/20 09:41:11;;;;;;;7.00;6.30;;;;;;;23.90;19.30;96990.28;6178002;28;102737;-45
2022/03/20 09:44:15;;;;;;;6.70;6.10;;;;;;;23.89;19.19;97000.16;6184259;28;102783;-45
2022/03/20 09:47:17;;;;;;;6.10;5.60;;;;;;;23.89;18.69;96997.50;6179180;28;103687;-45
2022/03/20 09:50:19;;;;;;;5.80;5.30;;;;;;;23.91;18.76;96994.56;6193272;28;103453;-45
2022/03/20 09:53:21;;;;;;;6.00;5.50;;;;;;;23.87;18.35;96990.81;6183292;28;103075;-46
2022/03/20 09:56:23;;;;;;;6.53;5.93;;;;;;;23.82;18.45;96980.09;6184158;28;103258;-44
2022/03/20 09:59:25;;;;;;;6.27;5.70;;;;;;;23.79;18.25;96975.28;6180554;28;103398;-45
2022/03/20 10:02:28;;;;;;;7.47;5.40;;;;;;;23.72;18.00;96985.41;6176626;28;102851;-44
2022/03/20 10:05:30;;;;;;;6.27;5.70;;;;;;;23.76;18.00;96978.50;6183568;28;102743;-44
2022/03/20 10:08:32;;;;;;;5.30;4.80;;;;;;;23.88;18.41;96973.72;6182187;28;104001;-44
2022/03/20 10:11:35;;;;;;;5.53;5.10;;;;;;;23.93;18.28;96985.22;6183356;28;102813;-44
2022/03/20 10:14:45;;;;;;;5.57;5.17;;;;;;;23.89;17.67;96962.78;6178095;28;102971;-44
2022/03/20 10:18:15;;;;;;;5.00;4.60;;;;;;;23.96;18.05;96967.84;6183388;28;102688;-44
2022/03/20 10:21:19;;;;;;;5.53;5.13;;;;;;;23.94;17.85;96961.97;6207251;28;102940;-44
2022/03/20 10:24:23;;;;;;;5.80;5.30;;;;;;;23.89;17.06;96968.13;6188274;28;103168;-44
2022/03/20 10:27:25;;;;;;;5.83;5.33;;;;;;;23.89;17.43;96964.66;6192146;28;103062;-44
2022/03/20 10:30:27;;;;;;;5.10;4.53;;;;;;;23.92;16.85;96962.25;6182416;28;103537;-44
2022/03/20 10:33:29;;;;;;;5.60;5.20;;;;;;;23.89;17.21;96960.13;6183287;28;102760;-44
2022/03/20 10:36:33;;;;;;;6.30;5.70;;;;;;;23.90;17.15;96953.72;6179116;28;103125;-44
2022/03/20 10:39:36;;;;;;;8.03;6.30;;;;;;;23.91;18.11;96951.84;6182165;28;102744;-44
2022/03/20 10:42:38;;;;;;;7.27;5.90;;;;;;;23.93;17.74;96955.84;6180263;28;102975;-44
2022/03/20 10:45:49;;;;;;;6.23;5.60;;;;;;;23.91;17.90;96951.84;6177278;28;106176;-44
2022/03/20 10:48:54;;;;;;;6.07;5.57;;;;;;;23.88;19.33;96942.50;6168402;28;103217;-44
2022/03/20 10:52:06;;;;;;;6.33;5.83;;;;;;;23.93;19.91;96939.03;6175406;28;102830;-44
2022/03/20 10:55:17;;;;;;;7.03;6.17;;;;;;;23.86;20.92;96935.81;6167657;28;103019;-44
2022/03/20 10:58:20;;;;;;;7.10;6.50;;;;;;;23.92;21.60;96938.22;6175052;28;102840;-45
2022/03/20 11:01:38;;;;;;;7.30;6.70;;;;;;;23.94;22.28;96936.09;6178132;28;103455;-44
2022/03/20 11:04:41;;;;;;;7.37;6.73;;;;;;;23.95;22.88;96932.34;6182428;28;102718;-42
2022/03/20 11:07:43;;;;;;;8.40;7.60;;;;;;;23.94;22.92;96922.72;6172011;28;103190;-42
2022/03/20 11:10:47;;;;;;;9.20;8.33;;;;;;;23.90;22.94;96912.84;6182293;28;103103;-43
2022/03/20 11:13:53;;;;;;;9.40;8.60;;;;;;;23.87;22.81;96916.88;6180288;28;103461;-42
2022/03/20 11:17:06;;;;;;;11.90;10.90;;;;;;;23.87;23.33;96916.88;6193770;28;103402;-42
2022/03/20 11:20:10;;;;;;;12.23;11.23;;;;;;;23.88;23.69;96917.66;6201260;28;103789;-42
2022/03/20 11:23:14;;;;;;;13.63;12.47;;;;;;;23.86;23.78;96909.13;6204064;28;103238;-43
2022/03/20 11:26:20;;;;;;;15.07;13.57;;;;;;;23.83;23.67;96906.97;6178157;28;102790;-42
2022/03/20 11:29:24;;;;;;;16.97;15.50;;;;;;;23.81;23.89;96899.22;6154729;28;104790;-42
2022/03/20 11:32:26;;;;;;;16.67;15.27;;;;;;;23.80;24.22;96897.63;6181109;28;103200;-41
2022/03/20 11:35:31;;;;;;;16.90;15.50;;;;;;;23.81;24.33;96903.75;6177107;28;104284;-43
2022/03/20 11:38:35;;;;;;;20.00;18.30;;;;;;;23.75;24.36;96908.28;6178449;28;103748;-43
2022/03/20 11:41:38;;;;;;;20.13;18.43;;;;;;;23.77;24.40;96890.13;6175968;28;102786;-43
2022/03/20 11:44:53;;;;;;;18.93;17.43;;;;;;;23.88;25.06;96885.63;6147195;28;102978;-42
2022/03/20 11:48:13;;;;;;;18.97;17.20;;;;;;;23.93;24.89;96888.28;6199341;28;104324;-42
2022/03/20 11:51:49;;;;;;;17.80;16.30;;;;;;;23.92;25.32;96892.03;6201195;28;103146;-42
2022/03/20 11:54:53;;;;;;;16.17;14.77;;;;;;;23.88;24.92;96881.09;6184884;28;102867;-43
2022/03/20 11:57:57;;;;;;;16.93;15.13;;;;;;;23.86;24.97;96882.44;6177850;28;103442;-43
2022/03/20 12:01:04;;;;;;;16.50;15.00;;;;;;;23.84;25.51;96877.31;6179346;28;102802;-41
2022/03/20 12:04:14;;;;;;;16.60;15.10;;;;;;;23.81;25.32;96877.88;6155348;28;103397;-41
2022/03/20 12:07:40;;;;;;;16.00;14.70;;;;;;;23.74;25.14;96868.53;6178253;28;104001;-42
2022/03/20 12:11:16;;;;;;;15.67;14.27;;;;;;;23.73;25.58;96872.25;6181454;28;103059;-43
2022/03/20 12:14:30;;;;;;;15.83;14.53;;;;;;;23.68;25.84;96876.53;6176562;28;103154;-41
2022/03/20 12:18:10;;;;;;;14.87;13.63;;;;;;;23.64;25.59;96870.09;6182541;28;102721;-43
2022/03/20 12:21:11;;;;;;;14.17;12.97;;;;;;;23.56;25.84;96859.13;6084736;28;103188;-41
2022/03/20 12:24:35;;;;;;;13.70;12.50;;;;;;;23.57;25.97;96861.56;6164206;28;103159;-42
2022/03/20 12:27:37;;;;;;;14.70;13.40;;;;;;;23.54;25.99;96864.72;6179054;28;103348;-42
2022/03/20 12:30:45;;;;;;;13.77;12.67;;;;;;;23.50;26.26;96860.97;6183007;28;103323;-42
2022/03/20 12:34:20;;;;;;;13.10;11.90;;;;;;;23.48;25.74;96855.09;6181008;28;103388;-41
2022/03/20 12:37:27;;;;;;;12.70;11.70;;;;;;;23.47;25.76;96858.81;6175914;28;103475;-41
2022/03/20 12:40:32;;;;;;;12.53;11.53;;;;;;;23.45;26.22;96855.63;6183429;28;102698;-41
2022/03/20 12:44:00;;;;;;;11.90;10.90;;;;;;;23.45;26.17;96854.81;6187978;28;102830;-42
2022/03/20 12:47:03;;;;;;;11.60;10.50;;;;;;;23.44;25.95;96846.00;6185412;28;102777;-42
2022/03/20 12:50:09;;;;;;;12.37;11.37;;;;;;;23.39;26.17;96836.16;6172289;28;102873;-43
2022/03/20 12:53:21;;;;;;;12.47;11.47;;;;;;;23.45;26.36;96849.47;6190588;28;102768;-42
2022/03/20 12:59:27;;;;;;;11.50;10.60;;;;;;;23.42;26.44;96843.63;6170864;28;102860;-42
2022/03/20 13:02:34;;;;;;;12.20;11.00;;;;;;;23.44;26.50;96831.88;6189752;28;102912;-41
2022/03/20 13:05:45;;;;;;;11.20;10.30;;;;;;;23.41;26.75;96833.22;6187100;28;103193;-42
2022/03/20 13:08:47;;;;;;;10.90;10.00;;;;;;;23.39;26.87;96830.81;6163328;28;104723;-42
2022/03/20 13:11:59;;;;;;;10.10;9.30;;;;;;;23.39;26.81;96824.66;6187232;28;102860;-42
2022/03/20 13:15:01;;;;;;;10.50;9.60;;;;;;;23.37;26.49;96824.94;6189821;28;103152;-42
2022/03/20 13:18:05;;;;;;;10.70;9.90;;;;;;;23.31;26.92;96817.16;6190158;28;102766;-42
2022/03/20 13:21:07;;;;;;;9.70;8.70;;;;;;;23.38;26.79;96828.41;6184490;28;104251;-41
2022/03/20 13:24:09;;;;;;;9.93;9.13;;;;;;;23.36;27.07;96826.00;6197599;28;102727;-41
2022/03/20 13:27:12;;;;;;;10.67;9.77;;;;;;;23.31;26.99;96809.16;6189209;28;102719;-43
2022/03/20 13:30:21;;;;;;;11.23;10.43;;;;;;;23.33;27.00;96813.16;6166948;28;103170;-42
2022/03/20 13:33:40;;;;;;;11.10;10.20;;;;;;;23.38;27.47;96813.19;6189490;28;102986;-42
2022/03/20 13:36:46;;;;;;;11.07;10.10;;;;;;;23.39;27.70;96822.00;6187086;28;103126;-42
2022/03/20 13:39:59;;;;;;;11.73;10.73;;;;;;;23.38;27.76;96807.06;6187424;28;103277;-42
2022/03/20 13:43:01;;;;;;;12.37;11.33;;;;;;;23.32;27.54;96802.78;6164082;28;102853;-42
2022/03/20 13:46:23;;;;;;;12.83;11.83;;;;;;;23.38;27.41;96810.53;6188158;28;102908;-43
2022/03/20 13:49:27;;;;;;;13.50;12.30;;;;;;;23.39;27.64;96790.78;6187568;28;102884;-42
2022/03/20 13:55:34;;;;;;;12.40;11.30;;;;;;;23.40;28.26;96791.59;6185687;28;103323;-42
2022/03/20 13:58:37;;;;;;;12.57;11.37;;;;;;;23.23;28.32;96765.16;6184491;28;102996;-42
2022/03/20 14:01:45;;;;;;;12.10;11.10;;;;;;;23.41;28.06;96780.66;6184221;28;102794;-42
2022/03/20 14:04:50;;;;;;;11.80;10.60;;;;;;;23.41;28.15;96790.53;6177457;28;103961;-41
2022/03/20 14:08:10;;;;;;;11.87;10.73;;;;;;;23.40;28.21;96791.59;6183441;28;103269;-42
2022/03/20 14:11:12;;;;;;;10.87;9.97;;;;;;;23.38;28.75;96781.19;6183948;28;102768;-43
2022/03/20 14:14:14;;;;;;;10.30;9.30;;;;;;;23.35;28.85;96778.25;6181719;28;104237;-43
2022/03/20 14:17:16;;;;;;;14.53;13.40;;;;;;;23.19;28.21;96750.75;6181241;28;103087;-43
2022/03/20 14:20:21;;;;;;;20.70;19.00;;;;;;;23.37;27.79;96773.47;6182483;28;103114;-46
2022/03/20 14:23:24;;;;;;;25.33;23.23;;;;;;;23.35;27.44;96773.72;6187143;28;102987;-45
2022/03/20 14:26:26;;;;;;;29.33;26.73;;;;;;;23.28;27.34;96765.16;6187263;28;102958;-45
2022/03/20 14:39:58;;;;;;;14.07;12.77;;;;;;;23.32;26.04;96760.09;6182140;28;103463;-44
2022/03/20 14:43:10;;;;;;;14.50;13.30;;;;;;;23.31;26.31;96758.50;6180342;28;102764;-41
2022/03/20 14:46:14;;;;;;;14.70;13.50;;;;;;;23.28;26.29;96762.50;6183450;28;103191;-43
2022/03/20 14:49:18;;;;;;;14.20;13.10;;;;;;;23.29;26.49;96764.09;6180243;28;103802;-42
2022/03/20 14:52:20;;;;;;;13.40;12.30;;;;;;;23.28;26.51;96759.03;6182073;28;104027;-41
2022/03/20 14:55:22;;;;;;;12.87;11.87;;;;;;;23.24;26.66;96750.75;6181278;28;103473;-41